createdAt,value
2019-03-09T00:00:00.336Z,53.67
2019-03-09T00:01:00.301Z,53.67
2019-03-09T00:02:00.234Z,53.67
2019-03-09T00:03:00.218Z,53.67
2019-03-09T00:04:00.214Z,53.67
2019-03-09T00:05:00.321Z,53.67
2019-03-09T00:06:00.221Z,53.67
2019-03-09T00:07:00.468Z,53.67
2019-03-09T00:08:00.165Z,53.67
2019-03-09T00:09:00.158Z,53.77
2019-03-09T00:10:00.284Z,53.67
2019-03-09T00:11:00.132Z,53.77
2019-03-09T00:12:00.122Z,53.67
2019-03-09T00:13:00.161Z,53.67
2019-03-09T00:14:00.125Z,53.67
2019-03-09T00:15:00.109Z,53.67
2019-03-09T00:16:00.085Z,53.67
2019-03-09T00:17:00.074Z,53.67
2019-03-09T00:18:00.059Z,53.77
2019-03-09T00:19:00.072Z,53.77
2019-03-09T00:20:00.047Z,53.77
2019-03-09T00:21:00.029Z,53.77
2019-03-09T00:22:00.024Z,53.77
2019-03-09T00:23:00.042Z,53.77
2019-03-09T00:23:59.997Z,53.77
2019-03-09T00:24:59.990Z,53.67
2019-03-09T00:25:59.977Z,53.77
2019-03-09T00:26:59.984Z,53.77
2019-03-09T00:27:59.950Z,53.77
2019-03-09T00:29:00.237Z,53.77
2019-03-09T00:29:59.934Z,53.77
2019-03-09T00:30:59.922Z,53.88
2019-03-09T00:31:59.912Z,53.88
2019-03-09T00:32:59.896Z,53.88
2019-03-09T00:33:59.885Z,53.88
2019-03-09T00:34:59.920Z,53.88
2019-03-09T00:35:59.865Z,53.88
2019-03-09T00:36:59.876Z,53.88
2019-03-09T00:37:59.851Z,53.88
2019-03-09T00:38:59.834Z,53.88
2019-03-09T00:39:59.830Z,53.88
2019-03-09T00:40:59.841Z,53.88
2019-03-09T00:41:59.806Z,53.88
2019-03-09T00:42:59.821Z,53.88
2019-03-09T00:43:59.784Z,53.88
2019-03-09T00:44:59.776Z,53.88
2019-03-09T00:45:59.788Z,53.88
2019-03-09T00:46:59.753Z,53.88
2019-03-09T00:47:59.738Z,53.97
2019-03-09T00:48:59.944Z,53.88
2019-03-09T00:49:59.725Z,53.97
2019-03-09T00:50:59.705Z,53.97
2019-03-09T00:51:59.701Z,53.97
2019-03-09T00:52:59.681Z,53.97
2019-03-09T00:53:59.673Z,53.97
2019-03-09T00:54:59.696Z,53.97
2019-03-09T00:55:59.651Z,53.97
2019-03-09T00:56:59.661Z,53.97
2019-03-09T00:57:59.655Z,53.97
2019-03-09T00:58:59.624Z,53.97
2019-03-09T00:59:59.649Z,53.97
2019-03-09T01:00:59.603Z,53.97
2019-03-09T01:01:59.819Z,53.97
2019-03-09T01:02:59.574Z,54.08
2019-03-09T01:03:59.564Z,53.97
2019-03-09T01:04:59.559Z,53.97
2019-03-09T01:05:59.550Z,54.08
2019-03-09T01:06:59.536Z,53.97
2019-03-09T01:07:59.554Z,54.08
2019-03-09T01:08:59.514Z,54.08
2019-03-09T01:09:59.731Z,54.08
2019-03-09T01:10:59.489Z,53.97
2019-03-09T01:11:59.479Z,54.08
2019-03-09T01:12:59.473Z,54.08
2019-03-09T01:13:59.463Z,54.08
2019-03-09T01:14:59.449Z,54.08
2019-03-09T01:15:59.459Z,54.08
2019-03-09T01:16:59.428Z,54.08
2019-03-09T01:17:59.416Z,54.08
2019-03-09T01:18:59.410Z,54.08
2019-03-09T01:19:59.391Z,54.08
2019-03-09T01:20:59.426Z,54.08
2019-03-09T01:21:59.373Z,54.08
2019-03-09T01:22:59.383Z,54.08
2019-03-09T01:23:59.352Z,54.08
2019-03-09T01:24:59.345Z,53.97
2019-03-09T01:25:59.332Z,54.08
2019-03-09T01:26:59.368Z,53.97
2019-03-09T01:27:59.316Z,53.97
2019-03-09T01:28:59.298Z,53.97
2019-03-09T01:29:59.289Z,53.97
2019-03-09T01:30:59.277Z,53.97
2019-03-09T01:31:59.263Z,54.08
2019-03-09T01:32:59.308Z,54.08
2019-03-09T01:33:59.250Z,54.08
2019-03-09T01:34:59.234Z,54.08
2019-03-09T01:35:59.222Z,54.08
2019-03-09T01:36:59.213Z,53.97
2019-03-09T01:37:59.199Z,54.08
2019-03-09T01:38:59.220Z,54.08
2019-03-09T01:39:59.212Z,54.08
2019-03-09T01:40:59.172Z,54.08
2019-03-09T01:41:59.159Z,53.97
2019-03-09T01:42:59.148Z,53.97
2019-03-09T01:43:59.138Z,54.08
2019-03-09T01:44:59.125Z,54.08
2019-03-09T01:45:59.155Z,54.08
2019-03-09T01:46:59.106Z,54.08
2019-03-09T01:47:59.100Z,54.08
2019-03-09T01:48:59.082Z,54.08
2019-03-09T01:49:59.115Z,54.17
2019-03-09T01:50:59.065Z,54.08
2019-03-09T01:51:59.056Z,54.08
2019-03-09T01:52:59.043Z,54.08
2019-03-09T01:53:59.033Z,54.08
2019-03-09T01:54:59.020Z,54.08
2019-03-09T01:55:59.052Z,54.08
2019-03-09T01:56:59.003Z,54.08
2019-03-09T01:57:59.015Z,54.08
2019-03-09T01:58:58.980Z,54.08
2019-03-09T01:59:58.971Z,54.08
2019-03-09T02:00:58.957Z,54.08
2019-03-09T02:01:58.954Z,54.08
2019-03-09T02:02:58.957Z,54.17
2019-03-09T02:03:58.924Z,54.17
2019-03-09T02:04:58.916Z,54.17
2019-03-09T02:05:58.931Z,54.17
2019-03-09T02:06:58.895Z,54.17
2019-03-09T02:07:59.048Z,54.08
2019-03-09T02:08:58.880Z,54.08
2019-03-09T02:09:58.858Z,54.17
2019-03-09T02:10:58.850Z,54.17
2019-03-09T02:11:58.848Z,54.17
2019-03-09T02:12:58.833Z,54.08
2019-03-09T02:13:58.842Z,54.08
2019-03-09T02:14:58.807Z,54.08
2019-03-09T02:15:58.798Z,54.08
2019-03-09T02:16:58.784Z,54.17
2019-03-09T02:17:58.778Z,54.17
2019-03-09T02:18:58.981Z,54.17
2019-03-09T02:19:58.759Z,54.17
2019-03-09T02:20:58.744Z,54.17
2019-03-09T02:21:58.735Z,54.17
2019-03-09T02:22:58.732Z,54.17
2019-03-09T02:23:58.710Z,54.17
2019-03-09T02:24:58.932Z,54.17
2019-03-09T02:25:58.693Z,54.17
2019-03-09T02:26:58.677Z,54.17
2019-03-09T02:27:58.670Z,54.17
2019-03-09T02:28:58.676Z,54.17
2019-03-09T02:29:58.648Z,54.17
2019-03-09T02:30:58.921Z,54.17
2019-03-09T02:31:58.625Z,54.17
2019-03-09T02:32:58.617Z,54.17
2019-03-09T02:33:58.608Z,54.17
2019-03-09T02:34:58.590Z,54.17
2019-03-09T02:35:58.587Z,54.28
2019-03-09T02:36:58.598Z,54.28
2019-03-09T02:37:58.559Z,54.28
2019-03-09T02:38:58.576Z,54.17
2019-03-09T02:39:58.544Z,54.17
2019-03-09T02:40:58.528Z,54.28
2019-03-09T02:41:58.527Z,54.28
2019-03-09T02:42:58.530Z,54.28
2019-03-09T02:43:58.497Z,54.17
2019-03-09T02:44:58.486Z,54.28
2019-03-09T02:45:58.475Z,54.28
2019-03-09T02:46:58.460Z,54.28
2019-03-09T02:47:58.547Z,54.28
2019-03-09T02:48:58.447Z,54.28
2019-03-09T02:49:58.641Z,54.28
2019-03-09T02:50:58.420Z,54.28
2019-03-09T02:51:58.448Z,54.17
2019-03-09T02:52:58.396Z,54.28
2019-03-09T02:53:58.440Z,54.28
2019-03-09T02:54:58.379Z,54.28
2019-03-09T02:55:58.371Z,54.38
2019-03-09T02:56:58.358Z,54.28
2019-03-09T02:57:58.391Z,54.28
2019-03-09T02:58:58.337Z,54.38
2019-03-09T02:59:58.345Z,54.38
2019-03-09T03:00:58.318Z,54.28
2019-03-09T03:01:58.301Z,54.38
2019-03-09T03:02:58.293Z,54.38
2019-03-09T03:03:58.279Z,54.28
2019-03-09T03:04:58.271Z,54.38
2019-03-09T03:05:58.291Z,54.38
2019-03-09T03:06:58.248Z,54.38
2019-03-09T03:07:58.239Z,54.38
2019-03-09T03:08:58.231Z,54.38
2019-03-09T03:09:58.220Z,54.38
2019-03-09T03:10:58.206Z,54.38
2019-03-09T03:11:58.214Z,54.38
2019-03-09T03:12:58.184Z,54.38
2019-03-09T03:13:58.176Z,54.38
2019-03-09T03:14:58.167Z,54.38
2019-03-09T03:15:58.368Z,54.38
2019-03-09T03:16:58.143Z,54.48
2019-03-09T03:17:58.139Z,54.38
2019-03-09T03:18:58.121Z,54.38
2019-03-09T03:19:58.112Z,54.38
2019-03-09T03:20:58.107Z,54.38
2019-03-09T03:21:58.307Z,54.38
2019-03-09T03:22:58.081Z,54.48
2019-03-09T03:23:58.064Z,54.48
2019-03-09T03:24:58.072Z,54.38
2019-03-09T03:25:58.045Z,54.38
2019-03-09T03:26:58.031Z,54.38
2019-03-09T03:27:58.052Z,54.38
2019-03-09T03:28:58.017Z,54.38
2019-03-09T03:29:58.036Z,54.48
2019-03-09T03:30:57.993Z,54.48
2019-03-09T03:31:57.986Z,54.48
2019-03-09T03:32:58.001Z,54.48
2019-03-09T03:33:57.957Z,54.48
2019-03-09T03:34:57.953Z,54.48
2019-03-09T03:35:57.959Z,54.48
2019-03-09T03:36:57.945Z,54.48
2019-03-09T03:37:57.922Z,54.48
2019-03-09T03:38:57.909Z,54.48
2019-03-09T03:39:57.899Z,54.38
2019-03-09T03:40:57.884Z,54.48
2019-03-09T03:41:57.907Z,54.48
2019-03-09T03:42:57.868Z,54.48
2019-03-09T03:43:57.854Z,54.48
2019-03-09T03:44:57.839Z,54.48
2019-03-09T03:45:57.835Z,54.48
2019-03-09T03:46:57.822Z,54.48
2019-03-09T03:47:58.028Z,54.48
2019-03-09T03:48:57.800Z,54.48
2019-03-09T03:49:57.787Z,54.58
2019-03-09T03:50:57.781Z,54.48
2019-03-09T03:51:57.772Z,54.48
2019-03-09T03:52:57.754Z,54.48
2019-03-09T03:53:57.783Z,54.48
2019-03-09T03:54:57.736Z,54.48
2019-03-09T03:55:57.726Z,54.48
2019-03-09T03:56:57.724Z,54.48
2019-03-09T03:57:57.703Z,54.48
2019-03-09T03:58:57.700Z,54.48
2019-03-09T03:59:57.733Z,54.48
2019-03-09T04:00:57.666Z,54.48
2019-03-09T04:01:57.668Z,54.48
2019-03-09T04:02:57.657Z,54.48
2019-03-09T04:03:57.636Z,54.48
2019-03-09T04:04:57.635Z,54.48
2019-03-09T04:05:57.894Z,54.48
2019-03-09T04:06:57.607Z,54.58
2019-03-09T04:07:57.600Z,54.48
2019-03-09T04:08:57.587Z,54.48
2019-03-09T04:09:57.580Z,54.48
2019-03-09T04:10:57.566Z,54.48
2019-03-09T04:11:57.600Z,54.48
2019-03-09T04:12:57.545Z,54.48
2019-03-09T04:13:57.546Z,54.48
2019-03-09T04:14:57.524Z,54.48
2019-03-09T04:15:57.543Z,54.58
2019-03-09T04:16:57.499Z,54.58
2019-03-09T04:17:57.515Z,54.58
2019-03-09T04:18:57.481Z,54.58
2019-03-09T04:19:57.467Z,54.58
2019-03-09T04:20:57.489Z,54.48
2019-03-09T04:21:57.448Z,54.58
2019-03-09T04:22:57.463Z,54.58
2019-03-09T04:23:57.437Z,54.58
2019-03-09T04:24:57.415Z,54.58
2019-03-09T04:25:57.413Z,54.58
2019-03-09T04:26:57.462Z,54.58
2019-03-09T04:27:57.380Z,54.58
2019-03-09T04:28:57.373Z,54.58
2019-03-09T04:29:57.365Z,54.58
2019-03-09T04:30:57.351Z,54.58
2019-03-09T04:31:57.345Z,54.68
2019-03-09T04:32:57.568Z,54.58
2019-03-09T04:33:57.364Z,54.58
2019-03-09T04:34:57.305Z,54.58
2019-03-09T04:35:57.300Z,54.58
2019-03-09T04:36:57.282Z,54.58
2019-03-09T04:37:57.280Z,54.58
2019-03-09T04:38:57.285Z,54.58
2019-03-09T04:39:57.254Z,54.58
2019-03-09T04:40:57.241Z,54.58
2019-03-09T04:41:57.232Z,54.58
2019-03-09T04:42:57.219Z,54.58
2019-03-09T04:43:57.500Z,54.68
2019-03-09T04:44:57.203Z,54.68
2019-03-09T04:45:57.188Z,54.68
2019-03-09T04:46:57.174Z,54.68
2019-03-09T04:47:57.167Z,54.68
2019-03-09T04:48:57.156Z,54.68
2019-03-09T04:49:57.181Z,54.68
2019-03-09T04:50:57.134Z,54.68
2019-03-09T04:51:57.127Z,54.68
2019-03-09T04:52:57.112Z,54.68
2019-03-09T04:53:57.103Z,54.68
2019-03-09T04:54:57.091Z,54.68
2019-03-09T04:55:57.118Z,54.68
2019-03-09T04:56:57.070Z,54.68
2019-03-09T04:57:57.063Z,54.78
2019-03-09T04:58:57.054Z,54.78
2019-03-09T04:59:57.035Z,54.68
2019-03-09T05:00:57.029Z,54.68
2019-03-09T05:01:57.074Z,54.68
2019-03-09T05:02:57.007Z,54.68
2019-03-09T05:03:57.000Z,54.68
2019-03-09T05:04:58.879Z,54.68
2019-03-09T05:05:56.977Z,54.68
2019-03-09T05:06:56.986Z,54.78
2019-03-09T05:07:56.980Z,54.78
2019-03-09T05:08:56.942Z,54.78
2019-03-09T05:09:56.934Z,54.78
2019-03-09T05:10:56.925Z,54.78
2019-03-09T05:11:56.909Z,54.78
2019-03-09T05:12:57.733Z,54.78
2019-03-09T05:13:56.888Z,54.78
2019-03-09T05:14:56.881Z,54.78
2019-03-09T05:15:56.867Z,54.78
2019-03-09T05:16:56.882Z,54.78
2019-03-09T05:17:56.882Z,54.78
2019-03-09T05:18:56.829Z,54.78
2019-03-09T05:19:56.824Z,54.78
2019-03-09T05:20:56.813Z,54.78
2019-03-09T05:21:56.800Z,54.78
2019-03-09T05:22:56.792Z,54.78
2019-03-09T05:23:56.803Z,54.78
2019-03-09T05:24:56.772Z,54.78
2019-03-09T05:25:56.762Z,54.78
2019-03-09T05:26:56.747Z,54.68
2019-03-09T05:27:56.739Z,54.78
2019-03-09T05:28:56.730Z,54.78
2019-03-09T05:29:56.958Z,54.78
2019-03-09T05:30:56.706Z,54.78
2019-03-09T05:31:56.690Z,54.78
2019-03-09T05:32:56.680Z,54.78
2019-03-09T05:33:56.678Z,54.78
2019-03-09T05:34:56.664Z,54.78
2019-03-09T05:35:56.689Z,54.78
2019-03-09T05:36:56.644Z,54.78
2019-03-09T05:37:56.630Z,54.78
2019-03-09T05:38:56.622Z,54.78
2019-03-09T05:39:56.626Z,54.68
2019-03-09T05:40:56.599Z,54.68
2019-03-09T05:41:56.808Z,54.68
2019-03-09T05:42:56.578Z,54.78
2019-03-09T05:43:56.569Z,54.68
2019-03-09T05:44:56.551Z,54.68
2019-03-09T05:45:56.545Z,54.78
2019-03-09T05:46:56.535Z,54.68
2019-03-09T05:47:56.587Z,54.78
2019-03-09T05:48:56.520Z,54.78
2019-03-09T05:49:56.498Z,54.78
2019-03-09T05:50:56.494Z,54.78
2019-03-09T05:51:56.478Z,54.78
2019-03-09T05:52:56.479Z,54.78
2019-03-09T05:53:56.482Z,54.78
2019-03-09T05:54:56.445Z,54.78
2019-03-09T05:55:56.433Z,54.78
2019-03-09T05:56:56.422Z,54.78
2019-03-09T05:57:56.415Z,54.78
2019-03-09T05:58:56.595Z,54.78
2019-03-09T05:59:56.393Z,54.78
2019-03-09T06:00:56.379Z,54.78
2019-03-09T06:01:56.376Z,54.78
2019-03-09T06:02:56.372Z,54.78
2019-03-09T06:03:56.350Z,54.78
2019-03-09T06:04:56.359Z,54.78
2019-03-09T06:05:56.328Z,54.78
2019-03-09T06:06:56.319Z,54.78
2019-03-09T06:07:56.305Z,54.78
2019-03-09T06:08:56.297Z,54.78
2019-03-09T06:09:56.306Z,54.78
2019-03-09T06:10:56.489Z,54.78
2019-03-09T06:11:56.269Z,54.78
2019-03-09T06:12:56.282Z,54.78
2019-03-09T06:13:56.241Z,54.78
2019-03-09T06:14:56.234Z,54.78
2019-03-09T06:15:56.227Z,54.78
2019-03-09T06:16:56.251Z,54.78
2019-03-09T06:17:56.208Z,54.68
2019-03-09T06:18:56.191Z,54.78
2019-03-09T06:19:56.183Z,54.78
2019-03-09T06:20:56.170Z,54.68
2019-03-09T06:21:56.162Z,54.68
2019-03-09T06:22:56.200Z,54.78
2019-03-09T06:23:56.134Z,54.78
2019-03-09T06:24:56.131Z,54.68
2019-03-09T06:25:56.143Z,54.78
2019-03-09T06:26:56.104Z,54.78
2019-03-09T06:27:56.095Z,54.68
2019-03-09T06:28:56.107Z,54.78
2019-03-09T06:29:56.072Z,54.68
2019-03-09T06:30:56.064Z,54.68
2019-03-09T06:31:56.073Z,54.78
2019-03-09T06:32:56.046Z,54.78
2019-03-09T06:33:56.030Z,54.68
2019-03-09T06:34:56.018Z,54.68
2019-03-09T06:35:56.033Z,54.68
2019-03-09T06:36:56.022Z,54.68
2019-03-09T06:37:56.017Z,54.68
2019-03-09T06:38:55.974Z,54.68
2019-03-09T06:39:55.965Z,54.68
2019-03-09T06:41:02.723Z,54.68
2019-03-09T06:41:56.945Z,54.78
2019-03-09T06:42:55.938Z,54.78
2019-03-09T06:43:55.964Z,54.68
2019-03-09T06:44:55.910Z,54.78
2019-03-09T06:45:55.901Z,54.68
2019-03-09T06:46:55.892Z,54.68
2019-03-09T06:47:55.885Z,54.68
2019-03-09T06:48:55.886Z,54.68
2019-03-09T06:49:55.897Z,54.68
2019-03-09T06:50:55.847Z,54.68
2019-03-09T06:51:55.838Z,54.68
2019-03-09T06:52:55.826Z,54.68
2019-03-09T06:53:55.814Z,54.68
2019-03-09T06:54:55.809Z,54.68
2019-03-09T06:55:55.822Z,54.68
2019-03-09T06:56:55.790Z,54.68
2019-03-09T06:57:55.774Z,54.78
2019-03-09T06:58:55.780Z,54.68
2019-03-09T06:59:55.754Z,54.78
2019-03-09T07:00:55.740Z,54.78
2019-03-09T07:01:55.761Z,54.68
2019-03-09T07:02:55.721Z,54.78
2019-03-09T07:03:55.711Z,54.78
2019-03-09T07:04:55.698Z,54.78
2019-03-09T07:05:55.691Z,54.78
2019-03-09T07:06:55.679Z,54.78
2019-03-09T07:07:55.693Z,54.78
2019-03-09T07:08:55.722Z,54.68
2019-03-09T07:09:55.666Z,54.68
2019-03-09T07:10:55.641Z,54.78
2019-03-09T07:11:55.628Z,54.68
2019-03-09T07:12:55.612Z,54.68
2019-03-09T07:13:55.602Z,54.78
2019-03-09T07:14:55.609Z,54.78
2019-03-09T07:15:55.579Z,54.78
2019-03-09T07:16:55.580Z,54.68
2019-03-09T07:17:55.560Z,54.68
2019-03-09T07:18:55.548Z,54.68
2019-03-09T07:19:55.563Z,54.68
2019-03-09T07:20:55.524Z,54.68
2019-03-09T07:21:55.519Z,54.68
2019-03-09T07:22:55.508Z,54.68
2019-03-09T07:23:55.499Z,54.68
2019-03-09T07:24:55.537Z,54.68
2019-03-09T07:25:55.498Z,54.68
2019-03-09T07:26:55.465Z,54.78
2019-03-09T07:27:55.454Z,54.68
2019-03-09T07:28:55.444Z,54.68
2019-03-09T07:29:55.430Z,54.68
2019-03-09T07:30:55.439Z,54.68
2019-03-09T07:31:55.406Z,54.68
2019-03-09T07:32:55.395Z,54.78
2019-03-09T07:33:55.391Z,54.68
2019-03-09T07:34:55.373Z,54.68
2019-03-09T07:35:55.580Z,54.68
2019-03-09T07:36:55.360Z,54.68
2019-03-09T07:37:55.345Z,54.68
2019-03-09T07:38:55.334Z,54.68
2019-03-09T07:39:55.325Z,54.78
2019-03-09T07:40:55.315Z,54.78
2019-03-09T07:41:55.526Z,54.68
2019-03-09T07:42:55.294Z,54.68
2019-03-09T07:43:55.276Z,54.78
2019-03-09T07:44:55.280Z,54.68
2019-03-09T07:45:55.257Z,54.68
2019-03-09T07:46:55.250Z,54.68
2019-03-09T07:47:55.259Z,54.68
2019-03-09T07:48:55.228Z,54.68
2019-03-09T07:49:55.214Z,54.68
2019-03-09T07:50:55.201Z,54.68
2019-03-09T07:51:55.197Z,54.68
2019-03-09T07:52:55.179Z,54.68
2019-03-09T07:53:55.199Z,54.68
2019-03-09T07:54:55.175Z,54.68
2019-03-09T07:55:55.149Z,54.68
2019-03-09T07:56:55.141Z,54.68
2019-03-09T07:57:55.126Z,54.68
2019-03-09T07:58:55.120Z,54.68
2019-03-09T07:59:55.393Z,54.68
2019-03-09T08:00:55.103Z,54.68
2019-03-09T08:01:55.084Z,54.68
2019-03-09T08:02:55.079Z,54.68
2019-03-09T08:03:55.064Z,54.68
2019-03-09T08:04:55.059Z,54.68
2019-03-09T08:05:55.070Z,54.68
2019-03-09T08:06:55.033Z,54.78
2019-03-09T08:07:55.032Z,54.78
2019-03-09T08:08:55.008Z,54.78
2019-03-09T08:09:55.005Z,54.78
2019-03-09T08:10:55.014Z,54.78
2019-03-09T08:11:54.977Z,54.78
2019-03-09T08:12:54.973Z,54.78
2019-03-09T08:13:54.962Z,54.78
2019-03-09T08:14:54.949Z,54.78
2019-03-09T08:15:54.973Z,54.78
2019-03-09T08:16:54.932Z,54.78
2019-03-09T08:17:55.907Z,54.78
2019-03-09T08:18:54.907Z,54.68
2019-03-09T08:19:54.903Z,54.78
2019-03-09T08:20:54.886Z,54.78
2019-03-09T08:21:54.909Z,54.78
2019-03-09T08:22:54.871Z,54.78
2019-03-09T08:23:56.507Z,54.78
2019-03-09T08:24:54.880Z,54.78
2019-03-09T08:25:54.837Z,54.78
2019-03-09T08:26:55.127Z,54.78
2019-03-09T08:27:54.831Z,54.78
2019-03-09T08:28:54.803Z,54.78
2019-03-09T08:29:54.787Z,54.78
2019-03-09T08:30:54.784Z,54.78
2019-03-09T08:31:54.773Z,54.78
2019-03-09T08:32:54.796Z,54.78
2019-03-09T08:33:54.745Z,54.78
2019-03-09T08:34:54.732Z,54.78
2019-03-09T08:35:54.724Z,54.78
2019-03-09T08:36:54.727Z,54.78
2019-03-09T08:37:54.714Z,54.78
2019-03-09T08:38:54.739Z,54.78
2019-03-09T08:39:54.685Z,54.78
2019-03-09T08:40:54.674Z,54.78
2019-03-09T08:41:54.672Z,54.78
2019-03-09T08:42:54.679Z,54.78
2019-03-09T08:43:54.637Z,54.78
2019-03-09T08:44:54.653Z,54.78
2019-03-09T08:45:54.620Z,54.78
2019-03-09T08:46:54.604Z,54.78
2019-03-09T08:47:54.624Z,54.78
2019-03-09T08:48:54.605Z,54.78
2019-03-09T08:49:54.582Z,54.78
2019-03-09T08:50:54.808Z,54.78
2019-03-09T08:51:54.551Z,54.78
2019-03-09T08:52:54.546Z,54.78
2019-03-09T08:53:54.566Z,54.78
2019-03-09T08:54:54.523Z,54.78
2019-03-09T08:55:54.515Z,54.78
2019-03-09T08:56:54.531Z,54.78
2019-03-09T08:57:54.503Z,54.78
2019-03-09T08:58:54.481Z,54.68
2019-03-09T08:59:54.466Z,54.68
2019-03-09T09:00:54.482Z,54.78
2019-03-09T09:01:54.481Z,54.78
2019-03-09T09:02:54.464Z,54.78
2019-03-09T09:03:54.427Z,54.78
2019-03-09T09:04:54.420Z,54.68
2019-03-09T09:05:54.406Z,54.68
2019-03-09T09:06:54.411Z,54.68
2019-03-09T09:07:54.404Z,54.68
2019-03-09T09:08:54.381Z,54.68
2019-03-09T09:09:54.368Z,54.68
2019-03-09T09:10:54.351Z,54.68
2019-03-09T09:11:54.342Z,54.78
2019-03-09T09:12:54.352Z,54.78
2019-03-09T09:13:54.338Z,54.78
2019-03-09T09:14:54.311Z,54.78
2019-03-09T09:15:54.298Z,54.78
2019-03-09T09:16:54.289Z,54.78
2019-03-09T09:17:54.276Z,54.78
2019-03-09T09:18:54.297Z,54.78
2019-03-09T09:19:54.258Z,54.78
2019-03-09T09:20:54.247Z,54.78
2019-03-09T09:21:54.232Z,54.78
2019-03-09T09:22:54.226Z,54.78
2019-03-09T09:23:54.259Z,54.98
2019-03-09T09:24:54.203Z,55.08
2019-03-09T09:25:54.197Z,55.28
2019-03-09T09:26:54.191Z,55.28
2019-03-09T09:27:54.175Z,55.18
2019-03-09T09:28:54.167Z,55.18
2019-03-09T09:29:54.366Z,55.18
2019-03-09T09:30:54.141Z,55.18
2019-03-09T09:31:54.131Z,55.18
2019-03-09T09:32:54.119Z,55.18
2019-03-09T09:33:54.109Z,55.28
2019-03-09T09:34:54.098Z,55.28
2019-03-09T09:35:54.127Z,55.18
2019-03-09T09:36:54.080Z,55.18
2019-03-09T09:37:54.066Z,55.18
2019-03-09T09:38:54.050Z,54.98
2019-03-09T09:39:54.042Z,54.88
2019-03-09T09:40:54.028Z,54.88
2019-03-09T09:41:54.055Z,54.88
2019-03-09T09:42:54.008Z,54.88
2019-03-09T09:43:54.003Z,54.88
2019-03-09T09:44:53.988Z,54.88
2019-03-09T09:45:53.981Z,54.78
2019-03-09T09:46:53.985Z,54.88
2019-03-09T09:47:53.999Z,54.88
2019-03-09T09:48:53.946Z,54.88
2019-03-09T09:49:53.935Z,54.78
2019-03-09T09:50:53.931Z,54.78
2019-03-09T09:51:53.912Z,54.78
2019-03-09T09:52:53.905Z,54.78
2019-03-09T09:53:53.913Z,54.78
2019-03-09T09:54:53.879Z,54.78
2019-03-09T09:55:53.876Z,54.78
2019-03-09T09:56:53.857Z,54.78
2019-03-09T09:57:53.853Z,54.88
2019-03-09T09:58:53.875Z,54.88
2019-03-09T09:59:53.827Z,54.88
2019-03-09T10:00:53.821Z,54.88
2019-03-09T10:01:53.809Z,54.98
2019-03-09T10:02:53.801Z,54.98
2019-03-09T10:03:53.792Z,54.98
2019-03-09T10:04:53.795Z,54.98
2019-03-09T10:05:53.761Z,54.98
2019-03-09T10:06:53.753Z,55.08
2019-03-09T10:07:53.738Z,54.98
2019-03-09T10:08:53.728Z,54.98
2019-03-09T10:09:53.748Z,54.98
2019-03-09T10:10:53.707Z,54.98
2019-03-09T10:11:53.702Z,54.98
2019-03-09T10:12:55.794Z,54.98
2019-03-09T10:13:53.686Z,54.98
2019-03-09T10:14:53.663Z,54.88
2019-03-09T10:15:53.679Z,54.98
2019-03-09T10:16:53.646Z,54.98
2019-03-09T10:17:53.638Z,54.98
2019-03-09T10:18:53.627Z,54.88
2019-03-09T10:19:53.637Z,54.88
2019-03-09T10:20:53.603Z,54.98
2019-03-09T10:21:53.614Z,54.98
2019-03-09T10:23:03.652Z,54.98
2019-03-09T10:23:54.572Z,55.08
2019-03-09T10:24:53.557Z,55.08
2019-03-09T10:25:53.587Z,55.08
2019-03-09T10:26:53.533Z,55.08
2019-03-09T10:27:53.527Z,55.08
2019-03-09T10:28:53.522Z,55.08
2019-03-09T10:29:53.509Z,55.18
2019-03-09T10:30:53.495Z,55.18
2019-03-09T10:31:53.509Z,55.18
2019-03-09T10:32:53.484Z,55.28
2019-03-09T10:33:53.465Z,55.26
2019-03-09T10:34:53.646Z,55.28
2019-03-09T10:35:53.469Z,55.26
2019-03-09T10:36:53.433Z,55.16
2019-03-09T10:37:53.417Z,55.16
2019-03-09T10:38:53.409Z,55.16
2019-03-09T10:39:53.397Z,55.16
2019-03-09T10:40:53.409Z,55.05
2019-03-09T10:41:53.379Z,54.96
2019-03-09T10:42:53.382Z,54.98
2019-03-09T10:43:53.354Z,54.96
2019-03-09T10:44:53.339Z,54.96
2019-03-09T10:45:53.359Z,54.85
2019-03-09T10:46:53.321Z,54.88
2019-03-09T10:47:53.313Z,54.88
2019-03-09T10:48:53.299Z,54.88
2019-03-09T10:49:53.314Z,54.98
2019-03-09T10:50:53.281Z,54.98
2019-03-09T10:51:53.270Z,54.98
2019-03-09T10:52:53.258Z,55.08
2019-03-09T10:53:53.253Z,55.08
2019-03-09T10:54:53.236Z,55.08
2019-03-09T10:55:53.267Z,55.05
2019-03-09T10:56:53.219Z,55.18
2019-03-09T10:57:53.202Z,55.16
2019-03-09T10:58:53.192Z,55.05
2019-03-09T10:59:53.177Z,55.16
2019-03-09T11:00:53.167Z,55.26
2019-03-09T11:01:53.188Z,55.26
2019-03-09T11:02:53.146Z,55.16
2019-03-09T11:03:53.140Z,55.08
2019-03-09T11:04:53.133Z,55.05
2019-03-09T11:05:53.133Z,55.05
2019-03-09T11:06:53.106Z,54.96
2019-03-09T11:07:53.113Z,54.96
2019-03-09T11:08:53.084Z,54.96
2019-03-09T11:09:53.071Z,54.88
2019-03-09T11:10:53.065Z,54.85
2019-03-09T11:11:53.071Z,54.88
2019-03-09T11:12:53.067Z,54.78
2019-03-09T11:13:53.034Z,54.88
2019-03-09T11:14:53.050Z,54.78
2019-03-09T11:15:53.035Z,54.88
2019-03-09T11:16:52.998Z,54.88
2019-03-09T11:17:52.985Z,54.88
2019-03-09T11:18:52.974Z,54.88
2019-03-09T11:19:52.970Z,54.98
2019-03-09T11:20:52.988Z,54.88
2019-03-09T11:21:52.947Z,54.78
2019-03-09T11:22:52.928Z,54.78
2019-03-09T11:23:53.036Z,54.68
2019-03-09T11:25:02.929Z,54.88
2019-03-09T11:25:54.151Z,54.78
2019-03-09T11:26:52.907Z,54.78
2019-03-09T11:27:52.876Z,54.78
2019-03-09T11:28:52.870Z,54.78
2019-03-09T11:29:52.853Z,54.78
2019-03-09T11:30:52.850Z,54.68
2019-03-09T11:31:52.856Z,54.68
2019-03-09T11:32:52.856Z,54.68
2019-03-09T11:33:52.811Z,54.68
2019-03-09T11:34:52.804Z,54.68
2019-03-09T11:35:52.796Z,54.68
2019-03-09T11:36:52.786Z,54.68
2019-03-09T11:37:52.779Z,54.68
2019-03-09T11:38:52.801Z,54.68
2019-03-09T11:39:52.748Z,54.78
2019-03-09T11:40:57.333Z,54.78
2019-03-09T11:41:53.732Z,54.88
2019-03-09T11:42:52.718Z,54.88
2019-03-09T11:43:52.710Z,54.88
2019-03-09T11:44:52.725Z,54.88
2019-03-09T11:45:52.686Z,54.88
2019-03-09T11:46:52.678Z,54.88
2019-03-09T11:47:52.691Z,54.98
2019-03-09T11:48:52.649Z,54.88
2019-03-09T11:49:52.642Z,54.98
2019-03-09T11:50:52.631Z,54.88
2019-03-09T11:51:52.625Z,54.88
2019-03-09T11:52:52.633Z,54.88
2019-03-09T11:53:52.598Z,54.88
2019-03-09T11:54:52.589Z,54.88
2019-03-09T11:55:52.577Z,54.98
2019-03-09T11:56:52.591Z,54.96
2019-03-09T11:57:52.554Z,54.98
2019-03-09T11:58:52.568Z,55.08
2019-03-09T11:59:52.534Z,54.96
2019-03-09T12:00:52.537Z,54.96
2019-03-09T12:01:52.536Z,54.96
2019-03-09T12:02:52.514Z,54.96
2019-03-09T12:03:52.673Z,54.96
2019-03-09T12:04:52.485Z,55.05
2019-03-09T12:05:52.467Z,55.16
2019-03-09T12:06:52.463Z,55.05
2019-03-09T12:07:52.450Z,55.05
2019-03-09T12:08:52.444Z,55.05
2019-03-09T12:09:52.454Z,55.05
2019-03-09T12:10:52.434Z,54.96
2019-03-09T12:11:52.429Z,54.96
2019-03-09T12:12:52.392Z,54.96
2019-03-09T12:13:52.383Z,54.96
2019-03-09T12:14:52.374Z,54.96
2019-03-09T12:15:52.405Z,54.85
2019-03-09T12:16:52.352Z,54.85
2019-03-09T12:17:52.345Z,54.85
2019-03-09T12:18:52.330Z,54.85
2019-03-09T12:19:52.319Z,54.85
2019-03-09T12:20:52.313Z,54.85
2019-03-09T12:21:52.338Z,54.96
2019-03-09T12:22:52.284Z,54.96
2019-03-09T12:23:52.282Z,54.96
2019-03-09T12:24:52.518Z,54.96
2019-03-09T12:25:52.254Z,54.85
2019-03-09T12:26:52.248Z,54.96
2019-03-09T12:27:52.237Z,54.85
2019-03-09T12:28:52.219Z,54.85
2019-03-09T12:29:52.213Z,54.85
2019-03-09T12:30:52.229Z,54.85
2019-03-09T12:31:52.190Z,54.75
2019-03-09T12:32:52.188Z,54.65
2019-03-09T12:33:52.198Z,54.65
2019-03-09T12:34:52.172Z,54.75
2019-03-09T12:35:52.153Z,54.75
2019-03-09T12:36:52.160Z,54.65
2019-03-09T12:37:52.132Z,54.65
2019-03-09T12:38:52.114Z,54.65
2019-03-09T12:39:52.105Z,54.65
2019-03-09T12:40:52.099Z,54.65
2019-03-09T12:41:52.616Z,54.65
2019-03-09T12:42:52.095Z,54.65
2019-03-09T12:43:52.067Z,54.65
2019-03-09T12:44:52.051Z,54.65
2019-03-09T12:45:52.035Z,54.75
2019-03-09T12:46:52.030Z,54.65
2019-03-09T12:47:52.175Z,54.65
2019-03-09T12:48:52.007Z,54.65
2019-03-09T12:49:51.997Z,54.65
2019-03-09T12:50:51.991Z,54.65
2019-03-09T12:51:51.977Z,54.65